sensor_id;sensor_type;location;lat;lon;timestamp;P1;durP1;ratioP1;P2;durP2;ratioP2
70426;SDS011;57872;55.432;37.248;2024-03-08T00:07:29;8.77;;;3.97;;
70426;SDS011;57872;55.432;37.248;2024-03-08T00:12:30;11.37;;;4.43;;
70426;SDS011;57872;55.432;37.248;2024-03-08T00:17:45;8.53;;;3.70;;
70426;SDS011;57872;55.432;37.248;2024-03-08T00:22:47;7.90;;;3.60;;
70426;SDS011;57872;55.432;37.248;2024-03-08T00:38:30;9.83;;;4.37;;
70426;SDS011;57872;55.432;37.248;2024-03-08T00:43:32;11.23;;;4.33;;
70426;SDS011;57872;55.432;37.248;2024-03-08T00:48:35;11.27;;;5.10;;
70426;SDS011;57872;55.432;37.248;2024-03-08T00:53:39;13.03;;;5.17;;
70426;SDS011;57872;55.432;37.248;2024-03-08T00:58:51;12.25;;;5.43;;
70426;SDS011;57872;55.432;37.248;2024-03-08T01:03:54;13.33;;;5.03;;
70426;SDS011;57872;55.432;37.248;2024-03-08T01:08:55;12.90;;;5.30;;
70426;SDS011;57872;55.432;37.248;2024-03-08T01:13:56;11.40;;;5.70;;
70426;SDS011;57872;55.432;37.248;2024-03-08T01:18:57;13.90;;;5.03;;
70426;SDS011;57872;55.432;37.248;2024-03-08T01:23:58;14.57;;;5.53;;
70426;SDS011;57872;55.432;37.248;2024-03-08T01:29:00;11.63;;;5.13;;
70426;SDS011;57872;55.432;37.248;2024-03-08T01:34:04;11.93;;;4.87;;
70426;SDS011;57872;55.432;37.248;2024-03-08T01:39:11;13.33;;;5.50;;
70426;SDS011;57872;55.432;37.248;2024-03-08T01:44:16;16.03;;;5.73;;
70426;SDS011;57872;55.432;37.248;2024-03-08T01:49:18;11.23;;;4.37;;
70426;SDS011;57872;55.432;37.248;2024-03-08T01:54:21;11.87;;;4.70;;
70426;SDS011;57872;55.432;37.248;2024-03-08T01:59:22;11.23;;;4.77;;
70426;SDS011;57872;55.432;37.248;2024-03-08T02:04:23;11.47;;;4.27;;
70426;SDS011;57872;55.432;37.248;2024-03-08T02:09:25;12.03;;;4.67;;
70426;SDS011;57872;55.432;37.248;2024-03-08T02:20:09;13.83;;;5.10;;
70426;SDS011;57872;55.432;37.248;2024-03-08T02:25:14;13.47;;;6.57;;
70426;SDS011;57872;55.432;37.248;2024-03-08T02:30:32;10.13;;;4.60;;
70426;SDS011;57872;55.432;37.248;2024-03-08T02:35:34;11.30;;;4.73;;
70426;SDS011;57872;55.432;37.248;2024-03-08T02:40:35;10.77;;;5.33;;
70426;SDS011;57872;55.432;37.248;2024-03-08T02:45:36;10.73;;;5.00;;
70426;SDS011;57872;55.432;37.248;2024-03-08T02:50:37;11.27;;;3.90;;
70426;SDS011;57872;55.432;37.248;2024-03-08T02:55:40;11.17;;;4.37;;
70426;SDS011;57872;55.432;37.248;2024-03-08T03:00:44;12.17;;;4.77;;
70426;SDS011;57872;55.432;37.248;2024-03-08T03:05:45;11.48;;;3.85;;
70426;SDS011;57872;55.432;37.248;2024-03-08T03:10:50;12.87;;;4.37;;
70426;SDS011;57872;55.432;37.248;2024-03-08T03:15:52;10.97;;;4.23;;
70426;SDS011;57872;55.432;37.248;2024-03-08T03:20:53;11.47;;;4.10;;
70426;SDS011;57872;55.432;37.248;2024-03-08T03:25:54;9.43;;;3.83;;
70426;SDS011;57872;55.432;37.248;2024-03-08T03:30:57;10.70;;;4.60;;
70426;SDS011;57872;55.432;37.248;2024-03-08T03:35:59;8.77;;;4.17;;
70426;SDS011;57872;55.432;37.248;2024-03-08T03:41:01;8.97;;;3.70;;
70426;SDS011;57872;55.432;37.248;2024-03-08T03:46:12;13.50;;;4.80;;
70426;SDS011;57872;55.432;37.248;2024-03-08T03:51:13;10.07;;;4.07;;
70426;SDS011;57872;55.432;37.248;2024-03-08T03:56:18;9.70;;;3.77;;
70426;SDS011;57872;55.432;37.248;2024-03-08T04:01:22;13.53;;;4.60;;
70426;SDS011;57872;55.432;37.248;2024-03-08T04:06:24;11.70;;;4.93;;
70426;SDS011;57872;55.432;37.248;2024-03-08T04:11:25;7.90;;;3.40;;
70426;SDS011;57872;55.432;37.248;2024-03-08T04:16:30;10.83;;;5.10;;
70426;SDS011;57872;55.432;37.248;2024-03-08T04:21:32;10.97;;;4.47;;
70426;SDS011;57872;55.432;37.248;2024-03-08T04:26:34;13.57;;;4.80;;
70426;SDS011;57872;55.432;37.248;2024-03-08T04:31:35;10.33;;;4.57;;
70426;SDS011;57872;55.432;37.248;2024-03-08T04:36:38;13.37;;;4.13;;
70426;SDS011;57872;55.432;37.248;2024-03-08T04:41:40;8.47;;;3.17;;
70426;SDS011;57872;55.432;37.248;2024-03-08T04:46:43;13.37;;;5.00;;
70426;SDS011;57872;55.432;37.248;2024-03-08T04:51:45;7.70;;;3.63;;
70426;SDS011;57872;55.432;37.248;2024-03-08T04:56:46;10.93;;;4.50;;
70426;SDS011;57872;55.432;37.248;2024-03-08T05:01:48;12.07;;;5.33;;
70426;SDS011;57872;55.432;37.248;2024-03-08T05:06:49;13.17;;;4.93;;
70426;SDS011;57872;55.432;37.248;2024-03-08T05:11:50;10.93;;;5.07;;
70426;SDS011;57872;55.432;37.248;2024-03-08T05:16:54;11.87;;;5.50;;
70426;SDS011;57872;55.432;37.248;2024-03-08T05:21:58;14.53;;;5.83;;
70426;SDS011;57872;55.432;37.248;2024-03-08T05:27:03;12.87;;;5.07;;
70426;SDS011;57872;55.432;37.248;2024-03-08T05:32:07;11.13;;;5.13;;
70426;SDS011;57872;55.432;37.248;2024-03-08T05:37:10;8.97;;;3.70;;
70426;SDS011;57872;55.432;37.248;2024-03-08T05:42:12;11.07;;;5.10;;
70426;SDS011;57872;55.432;37.248;2024-03-08T05:47:13;11.53;;;5.10;;
70426;SDS011;57872;55.432;37.248;2024-03-08T05:52:19;11.37;;;3.90;;
70426;SDS011;57872;55.432;37.248;2024-03-08T05:57:22;14.20;;;5.00;;
70426;SDS011;57872;55.432;37.248;2024-03-08T06:02:24;11.43;;;5.07;;
70426;SDS011;57872;55.432;37.248;2024-03-08T06:07:28;14.97;;;6.03;;
70426;SDS011;57872;55.432;37.248;2024-03-08T06:12:30;12.90;;;6.00;;
70426;SDS011;57872;55.432;37.248;2024-03-08T06:17:34;16.50;;;5.53;;
70426;SDS011;57872;55.432;37.248;2024-03-08T06:22:39;12.17;;;5.07;;
70426;SDS011;57872;55.432;37.248;2024-03-08T06:27:44;13.93;;;5.27;;
70426;SDS011;57872;55.432;37.248;2024-03-08T06:32:53;11.83;;;5.13;;
70426;SDS011;57872;55.432;37.248;2024-03-08T06:37:58;14.67;;;5.63;;
70426;SDS011;57872;55.432;37.248;2024-03-08T06:42:59;13.70;;;6.10;;
70426;SDS011;57872;55.432;37.248;2024-03-08T06:48:01;14.03;;;5.43;;
70426;SDS011;57872;55.432;37.248;2024-03-08T06:53:02;12.50;;;4.80;;
70426;SDS011;57872;55.432;37.248;2024-03-08T06:58:03;14.70;;;6.07;;
70426;SDS011;57872;55.432;37.248;2024-03-08T07:03:09;14.43;;;6.17;;
70426;SDS011;57872;55.432;37.248;2024-03-08T07:08:25;13.83;;;5.67;;
70426;SDS011;57872;55.432;37.248;2024-03-08T07:13:30;14.43;;;5.90;;
70426;SDS011;57872;55.432;37.248;2024-03-08T07:18:37;12.60;;;5.23;;
70426;SDS011;57872;55.432;37.248;2024-03-08T07:23:44;11.33;;;4.90;;
70426;SDS011;57872;55.432;37.248;2024-03-08T07:29:04;11.80;;;5.37;;
70426;SDS011;57872;55.432;37.248;2024-03-08T07:34:11;13.60;;;5.73;;
70426;SDS011;57872;55.432;37.248;2024-03-08T07:39:16;16.00;;;5.77;;
70426;SDS011;57872;55.432;37.248;2024-03-08T07:44:20;13.10;;;5.33;;
70426;SDS011;57872;55.432;37.248;2024-03-08T07:49:25;14.20;;;5.63;;
70426;SDS011;57872;55.432;37.248;2024-03-08T07:54:26;15.70;;;5.57;;
70426;SDS011;57872;55.432;37.248;2024-03-08T07:59:31;14.00;;;5.23;;
70426;SDS011;57872;55.432;37.248;2024-03-08T08:04:38;12.37;;;5.73;;
70426;SDS011;57872;55.432;37.248;2024-03-08T08:09:48;13.97;;;5.73;;
70426;SDS011;57872;55.432;37.248;2024-03-08T08:14:49;12.80;;;5.77;;
70426;SDS011;57872;55.432;37.248;2024-03-08T08:19:51;10.90;;;5.37;;
70426;SDS011;57872;55.432;37.248;2024-03-08T08:24:52;10.33;;;4.07;;
70426;SDS011;57872;55.432;37.248;2024-03-08T08:30:00;14.53;;;5.20;;
70426;SDS011;57872;55.432;37.248;2024-03-08T08:35:08;11.77;;;4.87;;
70426;SDS011;57872;55.432;37.248;2024-03-08T08:40:13;15.03;;;5.67;;
70426;SDS011;57872;55.432;37.248;2024-03-08T08:45:15;15.20;;;5.33;;
70426;SDS011;57872;55.432;37.248;2024-03-08T08:50:18;13.43;;;5.43;;
70426;SDS011;57872;55.432;37.248;2024-03-08T08:55:26;12.57;;;5.63;;
70426;SDS011;57872;55.432;37.248;2024-03-08T09:00:27;12.20;;;5.33;;
70426;SDS011;57872;55.432;37.248;2024-03-08T09:10:33;15.27;;;5.47;;
70426;SDS011;57872;55.432;37.248;2024-03-08T09:15:49;11.00;;;4.83;;
70426;SDS011;57872;55.432;37.248;2024-03-08T09:26:16;14.47;;;5.70;;
70426;SDS011;57872;55.432;37.248;2024-03-08T09:31:19;11.50;;;5.27;;
70426;SDS011;57872;55.432;37.248;2024-03-08T09:36:27;14.40;;;5.50;;
70426;SDS011;57872;55.432;37.248;2024-03-08T09:41:31;12.33;;;5.30;;
70426;SDS011;57872;55.432;37.248;2024-03-08T09:46:41;10.10;;;4.97;;
70426;SDS011;57872;55.432;37.248;2024-03-08T09:51:45;14.00;;;5.40;;
70426;SDS011;57872;55.432;37.248;2024-03-08T10:02:04;10.47;;;4.90;;
70426;SDS011;57872;55.432;37.248;2024-03-08T10:07:15;14.97;;;5.90;;
70426;SDS011;57872;55.432;37.248;2024-03-08T10:12:27;15.60;;;6.20;;
70426;SDS011;57872;55.432;37.248;2024-03-08T10:17:45;11.63;;;4.30;;
70426;SDS011;57872;55.432;37.248;2024-03-08T10:22:57;12.73;;;5.30;;
70426;SDS011;57872;55.432;37.248;2024-03-08T10:28:05;11.90;;;4.93;;
70426;SDS011;57872;55.432;37.248;2024-03-08T10:33:11;15.00;;;5.70;;
70426;SDS011;57872;55.432;37.248;2024-03-08T10:38:33;14.93;;;5.27;;
70426;SDS011;57872;55.432;37.248;2024-03-08T10:49:38;10.70;;;4.68;;
70426;SDS011;57872;55.432;37.248;2024-03-08T10:54:58;11.30;;;4.80;;
70426;SDS011;57872;55.432;37.248;2024-03-08T11:00:44;15.73;;;5.83;;
70426;SDS011;57872;55.432;37.248;2024-03-08T11:11:44;13.83;;;5.80;;
70426;SDS011;57872;55.432;37.248;2024-03-08T11:16:52;16.00;;;5.33;;
70426;SDS011;57872;55.432;37.248;2024-03-08T11:22:02;10.47;;;4.97;;
70426;SDS011;57872;55.432;37.248;2024-03-08T11:27:44;10.50;;;5.17;;
70426;SDS011;57872;55.432;37.248;2024-03-08T11:32:54;13.93;;;5.10;;
70426;SDS011;57872;55.432;37.248;2024-03-08T11:38:04;14.93;;;5.70;;
70426;SDS011;57872;55.432;37.248;2024-03-08T11:43:15;12.00;;;5.37;;
70426;SDS011;57872;55.432;37.248;2024-03-08T11:48:17;11.63;;;5.37;;
70426;SDS011;57872;55.432;37.248;2024-03-08T11:53:24;13.73;;;6.17;;
70426;SDS011;57872;55.432;37.248;2024-03-08T11:58:54;12.70;;;5.70;;
70426;SDS011;57872;55.432;37.248;2024-03-08T12:04:06;14.23;;;5.70;;
70426;SDS011;57872;55.432;37.248;2024-03-08T12:15:13;10.77;;;5.07;;
70426;SDS011;57872;55.432;37.248;2024-03-08T12:20:22;12.03;;;5.50;;
70426;SDS011;57872;55.432;37.248;2024-03-08T12:25:34;12.33;;;5.63;;
70426;SDS011;57872;55.432;37.248;2024-03-08T12:30:51;12.53;;;5.23;;
70426;SDS011;57872;55.432;37.248;2024-03-08T12:36:00;12.57;;;5.40;;
70426;SDS011;57872;55.432;37.248;2024-03-08T12:41:06;11.87;;;5.20;;
70426;SDS011;57872;55.432;37.248;2024-03-08T12:46:13;11.60;;;5.07;;
70426;SDS011;57872;55.432;37.248;2024-03-08T12:51:33;11.93;;;4.67;;
70426;SDS011;57872;55.432;37.248;2024-03-08T12:56:36;12.05;;;5.38;;
70426;SDS011;57872;55.432;37.248;2024-03-08T13:01:38;10.77;;;5.50;;
70426;SDS011;57872;55.432;37.248;2024-03-08T13:06:40;12.83;;;5.10;;
70426;SDS011;57872;55.432;37.248;2024-03-08T13:11:44;10.30;;;4.30;;
70426;SDS011;57872;55.432;37.248;2024-03-08T13:16:47;10.23;;;4.90;;
70426;SDS011;57872;55.432;37.248;2024-03-08T13:21:49;11.90;;;5.37;;
70426;SDS011;57872;55.432;37.248;2024-03-08T13:26:50;12.40;;;4.63;;
70426;SDS011;57872;55.432;37.248;2024-03-08T13:31:52;14.90;;;5.10;;
70426;SDS011;57872;55.432;37.248;2024-03-08T13:36:56;12.37;;;5.23;;
70426;SDS011;57872;55.432;37.248;2024-03-08T13:42:19;10.90;;;4.37;;
70426;SDS011;57872;55.432;37.248;2024-03-08T13:47:23;9.55;;;4.50;;
70426;SDS011;57872;55.432;37.248;2024-03-08T13:52:43;11.97;;;5.20;;
70426;SDS011;57872;55.432;37.248;2024-03-08T13:57:49;11.57;;;5.10;;
70426;SDS011;57872;55.432;37.248;2024-03-08T14:02:51;9.93;;;5.30;;
70426;SDS011;57872;55.432;37.248;2024-03-08T14:07:54;9.23;;;3.97;;
70426;SDS011;57872;55.432;37.248;2024-03-08T14:12:56;11.13;;;4.17;;
70426;SDS011;57872;55.432;37.248;2024-03-08T14:18:00;10.83;;;4.00;;
70426;SDS011;57872;55.432;37.248;2024-03-08T14:23:05;13.37;;;5.17;;
70426;SDS011;57872;55.432;37.248;2024-03-08T14:28:09;11.17;;;5.17;;
70426;SDS011;57872;55.432;37.248;2024-03-08T14:33:15;12.13;;;4.43;;
70426;SDS011;57872;55.432;37.248;2024-03-08T14:38:17;10.03;;;4.60;;
70426;SDS011;57872;55.432;37.248;2024-03-08T14:43:21;9.77;;;4.47;;
70426;SDS011;57872;55.432;37.248;2024-03-08T14:48:29;11.50;;;4.90;;
70426;SDS011;57872;55.432;37.248;2024-03-08T14:53:30;9.57;;;4.37;;
70426;SDS011;57872;55.432;37.248;2024-03-08T14:58:34;12.20;;;4.47;;
70426;SDS011;57872;55.432;37.248;2024-03-08T15:03:40;12.43;;;5.20;;
70426;SDS011;57872;55.432;37.248;2024-03-08T15:08:47;13.03;;;4.50;;
70426;SDS011;57872;55.432;37.248;2024-03-08T15:13:52;13.27;;;5.10;;
70426;SDS011;57872;55.432;37.248;2024-03-08T15:18:54;17.83;;;6.63;;
70426;SDS011;57872;55.432;37.248;2024-03-08T15:23:55;10.87;;;4.47;;
70426;SDS011;57872;55.432;37.248;2024-03-08T15:28:57;11.23;;;4.30;;
70426;SDS011;57872;55.432;37.248;2024-03-08T15:34:01;10.75;;;5.22;;
70426;SDS011;57872;55.432;37.248;2024-03-08T15:39:07;12.33;;;5.00;;
70426;SDS011;57872;55.432;37.248;2024-03-08T15:44:10;9.90;;;4.90;;
70426;SDS011;57872;55.432;37.248;2024-03-08T15:49:16;14.37;;;5.77;;
70426;SDS011;57872;55.432;37.248;2024-03-08T15:54:19;10.13;;;4.40;;
70426;SDS011;57872;55.432;37.248;2024-03-08T15:59:22;10.63;;;4.10;;
70426;SDS011;57872;55.432;37.248;2024-03-08T16:04:27;8.73;;;3.83;;
70426;SDS011;57872;55.432;37.248;2024-03-08T16:09:33;11.30;;;4.50;;
70426;SDS011;57872;55.432;37.248;2024-03-08T16:14:38;12.18;;;4.03;;
70426;SDS011;57872;55.432;37.248;2024-03-08T16:19:39;11.90;;;4.88;;
70426;SDS011;57872;55.432;37.248;2024-03-08T16:24:42;11.00;;;4.90;;
70426;SDS011;57872;55.432;37.248;2024-03-08T16:29:44;12.17;;;4.70;;
70426;SDS011;57872;55.432;37.248;2024-03-08T16:34:47;9.80;;;3.88;;
70426;SDS011;57872;55.432;37.248;2024-03-08T16:39:48;11.33;;;4.70;;
70426;SDS011;57872;55.432;37.248;2024-03-08T16:44:50;10.97;;;4.10;;
70426;SDS011;57872;55.432;37.248;2024-03-08T16:49:51;12.83;;;4.73;;
70426;SDS011;57872;55.432;37.248;2024-03-08T16:54:52;9.37;;;4.30;;
70426;SDS011;57872;55.432;37.248;2024-03-08T16:59:53;9.53;;;4.70;;
70426;SDS011;57872;55.432;37.248;2024-03-08T17:04:57;10.77;;;4.88;;
70426;SDS011;57872;55.432;37.248;2024-03-08T17:09:58;11.00;;;4.87;;
70426;SDS011;57872;55.432;37.248;2024-03-08T17:15:37;12.00;;;4.90;;
70426;SDS011;57872;55.432;37.248;2024-03-08T17:20:38;9.33;;;3.67;;
70426;SDS011;57872;55.432;37.248;2024-03-08T17:25:47;9.93;;;4.13;;
70426;SDS011;57872;55.432;37.248;2024-03-08T17:30:48;10.37;;;5.20;;
70426;SDS011;57872;55.432;37.248;2024-03-08T17:35:49;11.03;;;3.87;;
70426;SDS011;57872;55.432;37.248;2024-03-08T17:40:52;10.30;;;4.57;;
70426;SDS011;57872;55.432;37.248;2024-03-08T17:45:54;12.23;;;4.67;;
70426;SDS011;57872;55.432;37.248;2024-03-08T17:50:56;10.83;;;4.80;;
70426;SDS011;57872;55.432;37.248;2024-03-08T17:56:00;16.10;;;5.30;;
70426;SDS011;57872;55.432;37.248;2024-03-08T18:01:01;10.67;;;4.47;;
70426;SDS011;57872;55.432;37.248;2024-03-08T18:06:04;12.00;;;5.10;;
70426;SDS011;57872;55.432;37.248;2024-03-08T18:11:06;11.97;;;4.97;;
70426;SDS011;57872;55.432;37.248;2024-03-08T18:16:11;11.40;;;4.88;;
70426;SDS011;57872;55.432;37.248;2024-03-08T18:21:12;12.53;;;4.67;;
70426;SDS011;57872;55.432;37.248;2024-03-08T18:26:13;9.27;;;4.30;;
70426;SDS011;57872;55.432;37.248;2024-03-08T18:31:17;13.10;;;5.47;;
70426;SDS011;57872;55.432;37.248;2024-03-08T18:36:23;15.90;;;5.27;;
70426;SDS011;57872;55.432;37.248;2024-03-08T18:41:27;11.50;;;5.17;;
70426;SDS011;57872;55.432;37.248;2024-03-08T18:46:34;12.23;;;4.50;;
70426;SDS011;57872;55.432;37.248;2024-03-08T18:52:08;13.60;;;5.43;;
70426;SDS011;57872;55.432;37.248;2024-03-08T18:57:09;14.70;;;5.43;;
70426;SDS011;57872;55.432;37.248;2024-03-08T19:02:10;13.30;;;5.33;;
70426;SDS011;57872;55.432;37.248;2024-03-08T19:07:33;11.57;;;4.43;;
70426;SDS011;57872;55.432;37.248;2024-03-08T19:12:40;11.57;;;5.20;;
70426;SDS011;57872;55.432;37.248;2024-03-08T19:18:03;13.20;;;4.90;;
70426;SDS011;57872;55.432;37.248;2024-03-08T19:23:16;10.27;;;4.53;;
70426;SDS011;57872;55.432;37.248;2024-03-08T19:33:22;12.30;;;5.07;;
70426;SDS011;57872;55.432;37.248;2024-03-08T19:38:22;11.30;;;4.60;;
70426;SDS011;57872;55.432;37.248;2024-03-08T19:43:37;12.60;;;5.57;;
70426;SDS011;57872;55.432;37.248;2024-03-08T19:48:39;11.27;;;4.47;;
70426;SDS011;57872;55.432;37.248;2024-03-08T19:53:42;13.37;;;4.50;;
70426;SDS011;57872;55.432;37.248;2024-03-08T19:58:43;13.90;;;5.53;;
70426;SDS011;57872;55.432;37.248;2024-03-08T20:03:44;12.60;;;4.60;;
70426;SDS011;57872;55.432;37.248;2024-03-08T20:08:46;11.63;;;5.00;;
70426;SDS011;57872;55.432;37.248;2024-03-08T20:13:47;11.70;;;4.40;;
70426;SDS011;57872;55.432;37.248;2024-03-08T20:18:49;11.20;;;4.43;;
70426;SDS011;57872;55.432;37.248;2024-03-08T20:23:51;14.67;;;5.50;;
70426;SDS011;57872;55.432;37.248;2024-03-08T20:28:52;11.47;;;4.30;;
70426;SDS011;57872;55.432;37.248;2024-03-08T20:33:54;10.77;;;4.20;;
70426;SDS011;57872;55.432;37.248;2024-03-08T20:38:56;10.97;;;4.63;;
70426;SDS011;57872;55.432;37.248;2024-03-08T20:43:58;12.13;;;5.23;;
70426;SDS011;57872;55.432;37.248;2024-03-08T20:49:00;10.93;;;4.27;;
70426;SDS011;57872;55.432;37.248;2024-03-08T20:54:07;11.03;;;4.77;;
70426;SDS011;57872;55.432;37.248;2024-03-08T20:59:08;12.87;;;4.90;;
70426;SDS011;57872;55.432;37.248;2024-03-08T21:04:10;12.20;;;4.70;;
70426;SDS011;57872;55.432;37.248;2024-03-08T21:09:13;14.97;;;4.67;;
70426;SDS011;57872;55.432;37.248;2024-03-08T21:14:14;12.13;;;4.43;;
70426;SDS011;57872;55.432;37.248;2024-03-08T21:19:15;11.93;;;4.37;;
70426;SDS011;57872;55.432;37.248;2024-03-08T21:24:17;13.20;;;4.60;;
70426;SDS011;57872;55.432;37.248;2024-03-08T21:29:18;12.90;;;4.70;;
70426;SDS011;57872;55.432;37.248;2024-03-08T21:34:23;11.33;;;4.47;;
70426;SDS011;57872;55.432;37.248;2024-03-08T21:39:26;10.10;;;4.00;;
70426;SDS011;57872;55.432;37.248;2024-03-08T21:44:28;12.70;;;4.40;;
70426;SDS011;57872;55.432;37.248;2024-03-08T21:49:30;8.97;;;3.37;;
70426;SDS011;57872;55.432;37.248;2024-03-08T21:54:34;11.03;;;3.93;;
70426;SDS011;57872;55.432;37.248;2024-03-08T21:59:35;12.30;;;4.30;;
70426;SDS011;57872;55.432;37.248;2024-03-08T22:04:37;9.87;;;4.07;;
70426;SDS011;57872;55.432;37.248;2024-03-08T22:09:53;11.30;;;4.20;;
70426;SDS011;57872;55.432;37.248;2024-03-08T22:14:54;9.83;;;3.53;;
70426;SDS011;57872;55.432;37.248;2024-03-08T22:19:55;9.73;;;3.33;;
70426;SDS011;57872;55.432;37.248;2024-03-08T22:25:04;9.40;;;2.60;;
70426;SDS011;57872;55.432;37.248;2024-03-08T22:30:08;9.33;;;3.80;;
70426;SDS011;57872;55.432;37.248;2024-03-08T22:35:16;7.27;;;2.97;;
70426;SDS011;57872;55.432;37.248;2024-03-08T22:45:45;6.80;;;3.00;;
70426;SDS011;57872;55.432;37.248;2024-03-08T22:55:53;8.88;;;2.60;;
70426;SDS011;57872;55.432;37.248;2024-03-08T23:00:55;7.67;;;2.70;;
70426;SDS011;57872;55.432;37.248;2024-03-08T23:11:16;8.80;;;2.83;;
70426;SDS011;57872;55.432;37.248;2024-03-08T23:21:31;6.33;;;2.80;;
70426;SDS011;57872;55.432;37.248;2024-03-08T23:26:32;9.17;;;2.80;;
70426;SDS011;57872;55.432;37.248;2024-03-08T23:31:34;11.77;;;3.47;;
70426;SDS011;57872;55.432;37.248;2024-03-08T23:36:37;8.70;;;3.20;;
70426;SDS011;57872;55.432;37.248;2024-03-08T23:41:40;7.63;;;2.67;;
70426;SDS011;57872;55.432;37.248;2024-03-08T23:46:42;6.17;;;2.67;;
70426;SDS011;57872;55.432;37.248;2024-03-08T23:51:44;7.73;;;3.00;;
70426;SDS011;57872;55.432;37.248;2024-03-08T23:56:46;6.93;;;2.37;;
